createdAt,value
2018-09-16T00:00:25.687Z,1008.73
2018-09-16T00:01:25.679Z,1008.72
2018-09-16T00:02:25.671Z,1008.72
2018-09-16T00:03:25.665Z,1008.71
2018-09-16T00:04:25.653Z,1008.73
2018-09-16T00:05:25.645Z,1008.70
2018-09-16T00:06:25.638Z,1008.73
2018-09-16T00:07:25.630Z,1008.70
2018-09-16T00:08:25.621Z,1008.69
2018-09-16T00:09:25.612Z,1008.70
2018-09-16T00:10:25.608Z,1008.66
2018-09-16T00:11:25.597Z,1008.67
2018-09-16T00:12:25.589Z,1008.66
2018-09-16T00:13:25.583Z,1008.68
2018-09-16T00:14:25.602Z,1008.66
2018-09-16T00:15:25.563Z,1008.65
2018-09-16T00:16:25.554Z,1008.62
2018-09-16T00:17:25.546Z,1008.66
2018-09-16T00:18:25.537Z,1008.61
2018-09-16T00:19:25.530Z,1008.60
2018-09-16T00:20:25.520Z,1008.58
2018-09-16T00:21:25.512Z,1008.54
2018-09-16T00:22:25.506Z,1008.56
2018-09-16T00:23:25.496Z,1008.56
2018-09-16T00:24:25.486Z,1008.53
2018-09-16T00:25:25.479Z,1008.49
2018-09-16T00:26:25.469Z,1008.49
2018-09-16T00:27:25.462Z,1008.48
2018-09-16T00:28:25.455Z,1008.51
2018-09-16T00:29:25.444Z,1008.49
2018-09-16T00:30:25.436Z,1008.52
2018-09-16T00:31:25.426Z,1008.44
2018-09-16T00:32:25.417Z,1008.43
2018-09-16T00:33:25.410Z,1008.47
2018-09-16T00:34:25.403Z,1008.45
2018-09-16T00:35:25.394Z,1008.46
2018-09-16T00:36:25.384Z,1008.44
2018-09-16T00:37:25.379Z,1008.44
2018-09-16T00:38:25.368Z,1008.43
2018-09-16T00:39:25.375Z,1008.41
2018-09-16T00:40:25.349Z,1008.40
2018-09-16T00:41:25.341Z,1008.43
2018-09-16T00:42:25.333Z,1008.43
2018-09-16T00:43:25.325Z,1008.44
2018-09-16T00:44:25.316Z,1008.45
2018-09-16T00:45:25.307Z,1008.42
2018-09-16T00:46:25.299Z,1008.45
2018-09-16T00:47:25.293Z,1008.40
2018-09-16T00:48:25.281Z,1008.40
2018-09-16T00:49:25.273Z,1008.38
2018-09-16T00:50:25.263Z,1008.38
2018-09-16T00:51:25.255Z,1008.36
2018-09-16T00:52:25.246Z,1008.34
2018-09-16T00:53:25.237Z,1008.40
2018-09-16T00:54:25.234Z,1008.34
2018-09-16T00:55:25.221Z,1008.36
2018-09-16T00:56:25.212Z,1008.35
2018-09-16T00:57:25.204Z,1008.36
2018-09-16T00:58:25.194Z,1008.33
2018-09-16T00:59:25.186Z,1008.32
2018-09-16T01:00:25.179Z,1008.30
2018-09-16T01:01:25.168Z,1008.30
2018-09-16T01:02:25.160Z,1008.27
2018-09-16T01:03:25.155Z,1008.25
2018-09-16T01:04:25.147Z,1008.26
2018-09-16T01:05:25.141Z,1008.20
2018-09-16T01:06:25.126Z,1008.21
2018-09-16T01:07:25.119Z,1008.19
2018-09-16T01:08:25.110Z,1008.20
2018-09-16T01:09:25.099Z,1008.23
2018-09-16T01:10:25.091Z,1008.20
2018-09-16T01:11:25.083Z,1008.19
2018-09-16T01:12:25.073Z,1008.16
2018-09-16T01:13:25.064Z,1008.18
2018-09-16T01:14:25.060Z,1008.15
2018-09-16T01:15:25.048Z,1008.09
2018-09-16T01:16:25.038Z,1008.08
2018-09-16T01:17:25.029Z,1008.10
2018-09-16T01:18:25.021Z,1008.12
2018-09-16T01:19:25.017Z,1008.11
2018-09-16T01:20:25.004Z,1008.08
2018-09-16T01:21:24.995Z,1008.08
2018-09-16T01:22:24.989Z,1008.03
2018-09-16T01:23:24.977Z,1008.01
2018-09-16T01:24:24.968Z,1007.97
2018-09-16T01:25:24.959Z,1008.04
2018-09-16T01:26:24.951Z,1008.01
2018-09-16T01:27:24.941Z,1007.99
2018-09-16T01:28:24.934Z,1007.99
2018-09-16T01:29:24.924Z,1007.93
2018-09-16T01:30:24.915Z,1007.96
2018-09-16T01:31:24.906Z,1007.94
2018-09-16T01:32:24.897Z,1007.96
2018-09-16T01:33:24.888Z,1007.91
2018-09-16T01:34:24.879Z,1007.93
2018-09-16T01:35:24.871Z,1007.91
2018-09-16T01:36:24.861Z,1007.90
2018-09-16T01:37:24.852Z,1007.89
2018-09-16T01:38:24.844Z,1007.89
2018-09-16T01:39:24.836Z,1007.87
2018-09-16T01:40:24.826Z,1007.88
2018-09-16T01:41:24.822Z,1007.86
2018-09-16T01:42:24.807Z,1007.88
2018-09-16T01:43:24.799Z,1007.84
2018-09-16T01:44:24.790Z,1007.87
2018-09-16T01:45:24.781Z,1007.84
2018-09-16T01:46:24.771Z,1007.83
2018-09-16T01:47:24.764Z,1007.76
2018-09-16T01:48:24.754Z,1007.75
2018-09-16T01:49:24.745Z,1007.77
2018-09-16T01:50:24.737Z,1007.74
2018-09-16T01:51:24.728Z,1007.76
2018-09-16T01:52:24.718Z,1007.72
2018-09-16T01:53:24.912Z,1007.71
2018-09-16T01:54:24.703Z,1007.71
2018-09-16T01:55:24.692Z,1007.68
2018-09-16T01:56:24.682Z,1007.66
2018-09-16T01:57:24.674Z,1007.66
2018-09-16T01:58:24.667Z,1007.64
2018-09-16T01:59:24.659Z,1007.66
2018-09-16T02:00:24.660Z,1007.65
2018-09-16T02:01:24.639Z,1007.58
2018-09-16T02:02:24.628Z,1007.60
2018-09-16T02:03:24.619Z,1007.63
2018-09-16T02:04:24.610Z,1007.62
2018-09-16T02:05:24.601Z,1007.62
2018-09-16T02:06:24.592Z,1007.61
2018-09-16T02:07:24.584Z,1007.58
2018-09-16T02:08:24.573Z,1007.63
2018-09-16T02:09:24.565Z,1007.62
2018-09-16T02:10:24.560Z,1007.62
2018-09-16T02:11:24.547Z,1007.62
2018-09-16T02:12:24.537Z,1007.59
2018-09-16T02:13:24.530Z,1007.63
2018-09-16T02:14:24.520Z,1007.58
2018-09-16T02:15:24.511Z,1007.58
2018-09-16T02:16:24.500Z,1007.57
2018-09-16T02:17:24.492Z,1007.51
2018-09-16T02:18:24.483Z,1007.51
2018-09-16T02:19:24.478Z,1007.50
2018-09-16T02:20:24.464Z,1007.52
2018-09-16T02:21:24.454Z,1007.46
2018-09-16T02:22:24.447Z,1007.47
2018-09-16T02:23:24.438Z,1007.46
2018-09-16T02:24:24.428Z,1007.53
2018-09-16T02:25:24.419Z,1007.46
2018-09-16T02:26:24.410Z,1007.45
2018-09-16T02:27:24.403Z,1007.46
2018-09-16T02:28:24.394Z,1007.47
2018-09-16T02:29:24.384Z,1007.45
2018-09-16T02:30:24.373Z,1007.41
2018-09-16T02:31:24.364Z,1007.41
2018-09-16T02:32:24.354Z,1007.36
2018-09-16T02:33:24.349Z,1007.37
2018-09-16T02:34:24.337Z,1007.37
2018-09-16T02:35:24.329Z,1007.36
2018-09-16T02:36:24.567Z,1007.41
2018-09-16T02:37:24.309Z,1007.37
2018-09-16T02:38:24.299Z,1007.41
2018-09-16T02:39:24.291Z,1007.38
2018-09-16T02:40:24.295Z,1007.41
2018-09-16T02:41:24.271Z,1007.40
2018-09-16T02:42:24.264Z,1007.36
2018-09-16T02:43:24.329Z,1007.35
2018-09-16T02:44:24.247Z,1007.30
2018-09-16T02:45:24.235Z,1007.30
2018-09-16T02:46:24.229Z,1007.31
2018-09-16T02:47:24.217Z,1007.31
2018-09-16T02:48:24.207Z,1007.31
2018-09-16T02:49:24.204Z,1007.33
2018-09-16T02:50:24.193Z,1007.35
2018-09-16T02:51:24.178Z,1007.36
2018-09-16T02:52:24.171Z,1007.35
2018-09-16T02:53:24.173Z,1007.30
2018-09-16T02:54:24.159Z,1007.33
2018-09-16T02:55:24.149Z,1007.31
2018-09-16T02:56:24.384Z,1007.31
2018-09-16T02:57:24.124Z,1007.32
2018-09-16T02:58:24.118Z,1007.31
2018-09-16T02:59:24.107Z,1007.30
2018-09-16T03:00:24.096Z,1007.33
2018-09-16T03:01:24.088Z,1007.32
2018-09-16T03:02:24.078Z,1007.33
2018-09-16T03:03:24.069Z,1007.33
2018-09-16T03:04:24.060Z,1007.33
2018-09-16T03:05:24.050Z,1007.32
2018-09-16T03:06:24.042Z,1007.29
2018-09-16T03:07:24.037Z,1007.27
2018-09-16T03:08:24.027Z,1007.20
2018-09-16T03:09:24.017Z,1007.20
2018-09-16T03:10:24.009Z,1007.18
2018-09-16T03:11:24.051Z,1007.17
2018-09-16T03:12:23.986Z,1007.15
2018-09-16T03:13:23.979Z,1007.15
2018-09-16T03:14:23.972Z,1007.17
2018-09-16T03:15:23.961Z,1007.12
2018-09-16T03:16:23.951Z,1007.13
2018-09-16T03:17:23.942Z,1007.16
2018-09-16T03:18:23.934Z,1007.19
2018-09-16T03:19:23.924Z,1007.18
2018-09-16T03:20:23.914Z,1007.21
2018-09-16T03:21:23.906Z,1007.26
2018-09-16T03:22:23.898Z,1007.25
2018-09-16T03:23:23.888Z,1007.28
2018-09-16T03:24:23.878Z,1007.27
2018-09-16T03:25:23.869Z,1007.29
2018-09-16T03:26:23.860Z,1007.29
2018-09-16T03:27:23.953Z,1007.26
2018-09-16T03:28:23.841Z,1007.26
2018-09-16T03:29:23.832Z,1007.23
2018-09-16T03:30:23.823Z,1007.25
2018-09-16T03:31:23.815Z,1007.18
2018-09-16T03:32:23.855Z,1007.18
2018-09-16T03:33:23.796Z,1007.16
2018-09-16T03:34:23.787Z,1007.15
2018-09-16T03:35:23.778Z,1007.10
2018-09-16T03:36:23.777Z,1007.16
2018-09-16T03:37:24.010Z,1007.16
2018-09-16T03:38:23.751Z,1007.17
2018-09-16T03:39:23.741Z,1007.23
2018-09-16T03:40:23.731Z,1007.24
2018-09-16T03:41:23.721Z,1007.22
2018-09-16T03:42:23.712Z,1007.20
2018-09-16T03:43:23.703Z,1007.23
2018-09-16T03:44:23.694Z,1007.17
2018-09-16T03:45:23.684Z,1007.17
2018-09-16T03:46:23.675Z,1007.15
2018-09-16T03:47:23.667Z,1007.11
2018-09-16T03:48:23.687Z,1007.10
2018-09-16T03:49:23.649Z,1007.07
2018-09-16T03:50:23.641Z,1007.10
2018-09-16T03:51:23.632Z,1007.08
2018-09-16T03:52:23.619Z,1007.12
2018-09-16T03:53:23.611Z,1007.13
2018-09-16T03:54:23.602Z,1007.16
2018-09-16T03:55:23.595Z,1007.15
2018-09-16T03:56:23.582Z,1007.15
2018-09-16T03:57:23.577Z,1007.09
2018-09-16T03:58:23.566Z,1007.09
2018-09-16T03:59:23.561Z,1007.10
2018-09-16T04:00:23.547Z,1007.05
2018-09-16T04:01:23.538Z,1007.08
2018-09-16T04:02:23.532Z,1007.06
2018-09-16T04:03:23.521Z,1007.08
2018-09-16T04:04:23.510Z,1007.09
2018-09-16T04:05:23.503Z,1007.09
2018-09-16T04:06:23.492Z,1007.12
2018-09-16T04:07:23.487Z,1007.12
2018-09-16T04:08:23.726Z,1007.17
2018-09-16T04:09:23.466Z,1007.16
2018-09-16T04:10:23.456Z,1007.17
2018-09-16T04:11:23.447Z,1007.19
2018-09-16T04:12:23.437Z,1007.19
2018-09-16T04:13:23.433Z,1007.18
2018-09-16T04:14:23.420Z,1007.14
2018-09-16T04:15:23.414Z,1007.15
2018-09-16T04:16:23.402Z,1007.18
2018-09-16T04:17:23.393Z,1007.12
2018-09-16T04:18:23.384Z,1007.14
2018-09-16T04:19:23.375Z,1007.10
2018-09-16T04:20:23.365Z,1007.10
2018-09-16T04:21:23.609Z,1007.10
2018-09-16T04:22:23.347Z,1007.11
2018-09-16T04:23:23.339Z,1007.10
2018-09-16T04:24:23.331Z,1007.07
2018-09-16T04:25:23.320Z,1007.07
2018-09-16T04:26:23.314Z,1007.08
2018-09-16T04:27:23.552Z,1007.11
2018-09-16T04:28:23.293Z,1007.11
2018-09-16T04:29:23.283Z,1007.09
2018-09-16T04:30:23.274Z,1007.07
2018-09-16T04:31:23.268Z,1007.08
2018-09-16T04:32:23.407Z,1007.08
2018-09-16T04:33:23.278Z,1007.00
2018-09-16T04:34:23.240Z,1007.03
2018-09-16T04:35:23.230Z,1007.04
2018-09-16T04:36:23.220Z,1007.04
2018-09-16T04:37:23.211Z,1007.02
2018-09-16T04:38:23.203Z,1007.04
2018-09-16T04:39:23.200Z,1007.02
2018-09-16T04:40:23.183Z,1007.00
2018-09-16T04:41:23.177Z,1007.03
2018-09-16T04:42:23.165Z,1007.02
2018-09-16T04:43:23.157Z,1007.01
2018-09-16T04:44:23.146Z,1007.01
2018-09-16T04:45:23.138Z,1007.01
2018-09-16T04:46:23.128Z,1006.98
2018-09-16T04:47:23.120Z,1006.99
2018-09-16T04:48:23.109Z,1006.95
2018-09-16T04:49:23.100Z,1006.95
2018-09-16T04:50:23.100Z,1006.97
2018-09-16T04:51:23.082Z,1006.99
2018-09-16T04:52:23.073Z,1006.99
2018-09-16T04:54:23.057Z,1007.06
2018-09-16T04:55:23.045Z,1007.06
2018-09-16T04:56:23.238Z,1007.03
2018-09-16T04:57:23.027Z,1007.01
2018-09-16T04:58:23.018Z,1007.01
2018-09-16T04:59:23.010Z,1006.97
2018-09-16T05:00:22.999Z,1007.04
2018-09-16T05:01:22.989Z,1007.01
2018-09-16T05:02:22.984Z,1007.02
2018-09-16T05:03:22.977Z,1007.01
2018-09-16T05:04:22.962Z,1006.99
2018-09-16T05:05:22.956Z,1007.05
2018-09-16T05:06:22.945Z,1007.04
2018-09-16T05:07:22.936Z,1007.04
2018-09-16T05:08:23.128Z,1007.05
2018-09-16T05:09:22.917Z,1007.05
2018-09-16T05:10:22.926Z,1007.06
2018-09-16T05:11:22.900Z,1007.05
2018-09-16T05:12:22.889Z,1007.07
2018-09-16T05:13:22.880Z,1007.06
2018-09-16T05:14:22.871Z,1007.08
2018-09-16T05:15:22.862Z,1007.09
2018-09-16T05:16:22.853Z,1007.07
2018-09-16T05:17:22.843Z,1007.09
2018-09-16T05:18:22.834Z,1007.09
2018-09-16T05:19:22.829Z,1007.11
2018-09-16T05:20:22.820Z,1007.11
2018-09-16T05:21:22.806Z,1007.12
2018-09-16T05:22:22.797Z,1007.16
2018-09-16T05:23:22.790Z,1007.11
2018-09-16T05:24:22.780Z,1007.12
2018-09-16T05:25:22.775Z,1007.13
2018-09-16T05:26:22.763Z,1007.14
2018-09-16T05:27:22.754Z,1007.14
2018-09-16T05:28:22.744Z,1007.15
2018-09-16T05:29:22.736Z,1007.17
2018-09-16T05:30:22.731Z,1007.17
2018-09-16T05:31:22.752Z,1007.22
2018-09-16T05:32:22.712Z,1007.19
2018-09-16T05:33:22.701Z,1007.20
2018-09-16T05:34:22.690Z,1007.22
2018-09-16T05:35:22.683Z,1007.20
2018-09-16T05:36:22.672Z,1007.26
2018-09-16T05:37:22.867Z,1007.22
2018-09-16T05:38:22.657Z,1007.23
2018-09-16T05:39:22.646Z,1007.22
2018-09-16T05:40:22.635Z,1007.28
2018-09-16T05:41:22.628Z,1007.26
2018-09-16T05:42:22.623Z,1007.27
2018-09-16T05:43:22.627Z,1007.24
2018-09-16T05:44:22.607Z,1007.21
2018-09-16T05:45:22.596Z,1007.23
2018-09-16T05:46:22.583Z,1007.19
2018-09-16T05:47:22.578Z,1007.21
2018-09-16T05:48:22.565Z,1007.19
2018-09-16T05:49:22.557Z,1007.16
2018-09-16T05:50:22.548Z,1007.21
2018-09-16T05:51:22.542Z,1007.23
2018-09-16T05:52:22.530Z,1007.22
2018-09-16T05:53:22.639Z,1007.21
2018-09-16T05:54:22.521Z,1007.21
2018-09-16T05:55:22.506Z,1007.21
2018-09-16T05:56:22.495Z,1007.23
2018-09-16T05:57:22.488Z,1007.23
2018-09-16T05:58:22.478Z,1007.23
2018-09-16T05:59:22.575Z,1007.23
2018-09-16T06:00:22.461Z,1007.31
2018-09-16T06:01:22.451Z,1007.27
2018-09-16T06:02:22.444Z,1007.25
2018-09-16T06:03:22.436Z,1007.28
2018-09-16T06:04:22.427Z,1007.24
2018-09-16T06:05:22.418Z,1007.28
2018-09-16T06:06:22.411Z,1007.26
2018-09-16T06:07:22.405Z,1007.32
2018-09-16T06:08:22.594Z,1007.24
2018-09-16T06:09:22.387Z,1007.28
2018-09-16T06:10:22.381Z,1007.25
2018-09-16T06:11:22.368Z,1007.23
2018-09-16T06:12:22.358Z,1007.33
2018-09-16T06:13:22.354Z,1007.30
2018-09-16T06:14:22.341Z,1007.29
2018-09-16T06:15:22.338Z,1007.29
2018-09-16T06:16:22.329Z,1007.32
2018-09-16T06:17:22.318Z,1007.29
2018-09-16T06:18:22.308Z,1007.31
2018-09-16T06:19:22.304Z,1007.25
2018-09-16T06:20:22.292Z,1007.25
2018-09-16T06:21:22.286Z,1007.25
2018-09-16T06:22:22.275Z,1007.25
2018-09-16T06:23:22.268Z,1007.28
2018-09-16T06:24:22.257Z,1007.30
2018-09-16T06:25:22.250Z,1007.29
2018-09-16T06:26:22.242Z,1007.31
2018-09-16T06:27:22.237Z,1007.30
2018-09-16T06:28:22.224Z,1007.31
2018-09-16T06:29:22.217Z,1007.30
2018-09-16T06:30:22.209Z,1007.31
2018-09-16T06:31:22.201Z,1007.30
2018-09-16T06:32:22.192Z,1007.29
2018-09-16T06:33:22.184Z,1007.27
2018-09-16T06:34:22.177Z,1007.26
2018-09-16T06:35:22.169Z,1007.24
2018-09-16T06:36:22.160Z,1007.26
2018-09-16T06:37:22.152Z,1007.22
2018-09-16T06:38:22.147Z,1007.22
2018-09-16T06:39:22.137Z,1007.18
2018-09-16T06:40:22.129Z,1007.19
2018-09-16T06:41:22.201Z,1007.21
2018-09-16T06:42:22.111Z,1007.21
2018-09-16T06:43:22.114Z,1007.21
2018-09-16T06:44:22.096Z,1007.27
2018-09-16T06:45:22.089Z,1007.25
2018-09-16T06:46:22.081Z,1007.26
2018-09-16T06:47:22.074Z,1007.24
2018-09-16T06:48:22.070Z,1007.22
2018-09-16T06:49:22.059Z,1007.20
2018-09-16T06:50:22.050Z,1007.21
2018-09-16T06:51:22.045Z,1007.14
2018-09-16T06:52:22.037Z,1007.11
2018-09-16T06:53:22.027Z,1007.06
2018-09-16T06:54:22.020Z,1007.06
2018-09-16T06:55:22.020Z,1007.00
2018-09-16T06:56:22.004Z,1007.01
2018-09-16T06:57:21.999Z,1006.98
2018-09-16T06:58:21.990Z,1006.97
2018-09-16T06:59:21.982Z,1006.97
2018-09-16T07:00:21.978Z,1006.97
2018-09-16T07:01:21.968Z,1006.99
2018-09-16T07:02:21.960Z,1007.01
2018-09-16T07:03:21.956Z,1006.98
2018-09-16T07:04:21.946Z,1007.01
2018-09-16T07:05:21.942Z,1007.03
2018-09-16T07:06:21.935Z,1007.07
2018-09-16T07:07:21.925Z,1007.06
2018-09-16T07:08:21.998Z,1007.07
2018-09-16T07:09:21.912Z,1007.08
2018-09-16T07:10:21.905Z,1007.09
2018-09-16T07:11:21.901Z,1007.08
2018-09-16T07:12:21.893Z,1007.08
2018-09-16T07:13:21.886Z,1007.07
2018-09-16T07:14:21.896Z,1007.11
2018-09-16T07:15:21.875Z,1007.09
2018-09-16T07:16:21.867Z,1007.09
2018-09-16T07:17:21.860Z,1007.12
2018-09-16T07:18:21.857Z,1007.15
2018-09-16T07:19:21.852Z,1007.12
2018-09-16T07:20:21.843Z,1007.13
2018-09-16T07:21:21.838Z,1007.13
2018-09-16T07:22:21.831Z,1007.13
2018-09-16T07:23:21.825Z,1007.13
2018-09-16T07:24:21.822Z,1007.11
2018-09-16T07:25:21.819Z,1007.14
2018-09-16T07:26:21.814Z,1007.12
2018-09-16T07:27:21.893Z,1007.14
2018-09-16T07:28:21.805Z,1007.13
2018-09-16T07:29:21.795Z,1007.17
2018-09-16T07:30:21.792Z,1007.08
2018-09-16T07:31:21.789Z,1007.09
2018-09-16T07:32:21.790Z,1007.06
2018-09-16T07:33:21.783Z,1007.06
2018-09-16T07:34:21.781Z,1007.09
2018-09-16T07:35:21.783Z,1007.11
2018-09-16T07:36:21.778Z,1007.15
2018-09-16T07:37:21.777Z,1007.19
2018-09-16T07:38:21.776Z,1007.15
2018-09-16T07:39:21.776Z,1007.18
2018-09-16T07:40:21.776Z,1007.17
2018-09-16T07:41:21.775Z,1007.21
2018-09-16T07:42:21.778Z,1007.23
2018-09-16T07:43:21.779Z,1007.26
2018-09-16T07:44:21.781Z,1007.26
2018-09-16T07:45:21.782Z,1007.31
2018-09-16T07:46:21.790Z,1007.35
2018-09-16T07:47:21.852Z,1007.34
2018-09-16T07:48:21.793Z,1007.34
2018-09-16T07:49:21.792Z,1007.36
2018-09-16T07:50:21.797Z,1007.34
2018-09-16T07:51:21.799Z,1007.33
2018-09-16T07:52:21.801Z,1007.33
2018-09-16T07:53:21.852Z,1007.36
2018-09-16T07:54:21.811Z,1007.37
2018-09-16T07:55:21.824Z,1007.38
2018-09-16T07:56:21.820Z,1007.43
2018-09-16T07:57:21.828Z,1007.43
2018-09-16T07:58:21.829Z,1007.46
2018-09-16T07:59:21.835Z,1007.45
2018-09-16T08:00:21.838Z,1007.48
2018-09-16T08:01:21.842Z,1007.49
2018-09-16T08:02:21.846Z,1007.51
2018-09-16T08:03:21.852Z,1007.51
2018-09-16T08:04:21.857Z,1007.52
2018-09-16T08:05:21.925Z,1007.48
2018-09-16T08:06:22.148Z,1007.53
2018-09-16T08:07:21.880Z,1007.48
2018-09-16T08:08:21.880Z,1007.52
2018-09-16T08:09:21.887Z,1007.54
2018-09-16T08:10:21.892Z,1007.55
2018-09-16T08:11:21.900Z,1007.52
2018-09-16T08:12:21.905Z,1007.54
2018-09-16T08:13:21.912Z,1007.52
2018-09-16T08:14:21.926Z,1007.53
2018-09-16T08:15:21.930Z,1007.50
2018-09-16T08:16:21.930Z,1007.53
2018-09-16T08:17:21.940Z,1007.54
2018-09-16T08:18:21.945Z,1007.52
2018-09-16T08:19:21.956Z,1007.50
2018-09-16T08:20:21.959Z,1007.53
2018-09-16T08:21:22.031Z,1007.55
2018-09-16T08:22:21.975Z,1007.45
2018-09-16T08:23:21.982Z,1007.50
2018-09-16T08:24:21.987Z,1007.51
2018-09-16T08:25:21.997Z,1007.52
2018-09-16T08:26:22.004Z,1007.51
2018-09-16T08:27:22.016Z,1007.52
2018-09-16T08:28:22.044Z,1007.52
2018-09-16T08:29:22.029Z,1007.49
2018-09-16T08:30:22.041Z,1007.51
2018-09-16T08:31:22.247Z,1007.51
2018-09-16T08:32:22.058Z,1007.51
2018-09-16T08:33:22.062Z,1007.56
2018-09-16T08:34:22.070Z,1007.51
2018-09-16T08:35:22.085Z,1007.50
2018-09-16T08:36:22.096Z,1007.56
2018-09-16T08:37:22.096Z,1007.51
2018-09-16T08:38:22.112Z,1007.52
2018-09-16T08:39:22.114Z,1007.49
2018-09-16T08:40:22.121Z,1007.49
2018-09-16T08:41:22.132Z,1007.53
2018-09-16T08:42:22.139Z,1007.48
2018-09-16T08:43:22.147Z,1007.48
2018-09-16T08:44:22.158Z,1007.50
2018-09-16T08:45:22.164Z,1007.49
2018-09-16T08:46:22.183Z,1007.44
2018-09-16T08:47:22.184Z,1007.49
2018-09-16T08:48:22.193Z,1007.49
2018-09-16T08:49:22.198Z,1007.47
2018-09-16T08:50:22.206Z,1007.47
2018-09-16T08:51:22.219Z,1007.43
2018-09-16T08:52:22.343Z,1007.46
2018-09-16T08:53:22.235Z,1007.44
2018-09-16T08:54:22.241Z,1007.43
2018-09-16T08:55:22.246Z,1007.45
2018-09-16T08:56:22.257Z,1007.44
2018-09-16T08:57:22.266Z,1007.45
2018-09-16T08:58:22.504Z,1007.41
2018-09-16T08:59:22.282Z,1007.45
2018-09-16T09:00:22.285Z,1007.44
2018-09-16T09:01:22.298Z,1007.42
2018-09-16T09:02:22.303Z,1007.39
2018-09-16T09:03:22.312Z,1007.38
2018-09-16T09:04:22.394Z,1007.39
2018-09-16T09:05:22.332Z,1007.35
2018-09-16T09:06:22.336Z,1007.40
2018-09-16T09:07:22.344Z,1007.42
2018-09-16T09:08:22.353Z,1007.35
2018-09-16T09:09:22.359Z,1007.32
2018-09-16T09:10:22.378Z,1007.35
2018-09-16T09:11:22.379Z,1007.33
2018-09-16T09:12:22.591Z,1007.30
2018-09-16T09:13:22.393Z,1007.28
2018-09-16T09:14:22.482Z,1007.30
2018-09-16T09:15:22.410Z,1007.25
2018-09-16T09:16:22.419Z,1007.26
2018-09-16T09:17:22.635Z,1007.29
2018-09-16T09:18:22.687Z,1007.29
2018-09-16T09:19:22.449Z,1007.31
2018-09-16T09:20:22.451Z,1007.36
2018-09-16T09:21:22.459Z,1007.33
2018-09-16T09:22:22.468Z,1007.33
2018-09-16T09:23:22.558Z,1007.28
2018-09-16T09:24:22.486Z,1007.32
2018-09-16T09:25:22.697Z,1007.28
2018-09-16T09:26:22.506Z,1007.34
2018-09-16T09:27:22.510Z,1007.34
2018-09-16T09:28:22.518Z,1007.33
2018-09-16T09:29:22.730Z,1007.36
2018-09-16T09:30:22.541Z,1007.34
2018-09-16T09:31:22.548Z,1007.26
2018-09-16T09:32:22.557Z,1007.28
2018-09-16T09:33:22.565Z,1007.24
2018-09-16T09:34:22.574Z,1007.28
2018-09-16T09:35:22.583Z,1007.23
2018-09-16T09:36:22.594Z,1007.26
2018-09-16T09:37:22.601Z,1007.25
2018-09-16T09:38:22.609Z,1007.23
2018-09-16T09:39:22.620Z,1007.30
2018-09-16T09:40:22.628Z,1007.20
2018-09-16T09:41:22.639Z,1007.23
2018-09-16T09:42:22.648Z,1007.22
2018-09-16T09:43:22.660Z,1007.22
2018-09-16T09:44:22.666Z,1007.23
2018-09-16T09:45:22.675Z,1007.16
2018-09-16T09:46:22.688Z,1007.19
2018-09-16T09:47:22.695Z,1007.14
2018-09-16T09:48:22.708Z,1007.14
2018-09-16T09:49:22.714Z,1007.12
2018-09-16T09:50:22.725Z,1007.17
2018-09-16T09:51:22.733Z,1007.17
2018-09-16T09:52:22.745Z,1007.12
2018-09-16T09:53:22.811Z,1007.13
2018-09-16T09:54:22.760Z,1007.09
2018-09-16T09:55:22.773Z,1007.11
2018-09-16T09:56:22.780Z,1007.11
2018-09-16T09:57:22.795Z,1007.11
2018-09-16T09:58:22.799Z,1007.10
2018-09-16T09:59:23.074Z,1007.10
2018-09-16T10:00:22.816Z,1007.05
2018-09-16T10:01:22.825Z,1007.14
2018-09-16T10:02:22.835Z,1007.07
2018-09-16T10:03:22.848Z,1007.06
2018-09-16T10:04:22.852Z,1007.06
2018-09-16T10:05:23.065Z,1007.05
2018-09-16T10:06:22.876Z,1007.06
2018-09-16T10:07:22.881Z,1007.00
2018-09-16T10:08:22.888Z,1006.98
2018-09-16T10:09:22.895Z,1007.08
2018-09-16T10:10:22.910Z,1006.99
2018-09-16T10:11:22.913Z,1006.92
2018-09-16T10:12:22.923Z,1007.00
2018-09-16T10:13:22.931Z,1006.96
2018-09-16T10:14:22.944Z,1006.93
2018-09-16T10:15:23.200Z,1006.92
2018-09-16T10:16:22.961Z,1006.91
2018-09-16T10:17:23.175Z,1006.92
2018-09-16T10:18:22.978Z,1006.93
2018-09-16T10:19:23.030Z,1006.87
2018-09-16T10:20:22.997Z,1006.87
2018-09-16T10:21:23.009Z,1006.90
2018-09-16T10:22:23.016Z,1006.87
2018-09-16T10:23:23.031Z,1006.85
2018-09-16T10:24:23.044Z,1006.83
2018-09-16T10:25:23.247Z,1006.85
2018-09-16T10:26:23.053Z,1006.85
2018-09-16T10:27:23.064Z,1006.81
2018-09-16T10:28:23.075Z,1006.74
2018-09-16T10:29:23.088Z,1006.74
2018-09-16T10:30:23.094Z,1006.78
2018-09-16T10:31:23.104Z,1006.71
2018-09-16T10:32:23.115Z,1006.69
2018-09-16T10:33:23.126Z,1006.66
2018-09-16T10:34:23.136Z,1006.67
2018-09-16T10:35:23.149Z,1006.71
2018-09-16T10:36:23.155Z,1006.70
2018-09-16T10:37:23.164Z,1006.65
2018-09-16T10:38:23.204Z,1006.67
2018-09-16T10:39:23.185Z,1006.65
2018-09-16T10:40:23.191Z,1006.62
2018-09-16T10:41:23.203Z,1006.61
2018-09-16T10:42:23.212Z,1006.58
2018-09-16T10:43:23.221Z,1006.60
2018-09-16T10:44:23.231Z,1006.57
2018-09-16T10:45:23.246Z,1006.53
2018-09-16T10:46:23.251Z,1006.54
2018-09-16T10:47:23.264Z,1006.48
2018-09-16T10:48:23.368Z,1006.52
2018-09-16T10:49:23.285Z,1006.45
2018-09-16T10:50:23.294Z,1006.45
2018-09-16T10:51:23.305Z,1006.44
2018-09-16T10:52:23.318Z,1006.44
2018-09-16T10:53:23.326Z,1006.44
2018-09-16T10:54:23.337Z,1006.44
2018-09-16T10:55:23.345Z,1006.41
2018-09-16T10:56:23.355Z,1006.41
2018-09-16T10:57:23.366Z,1006.39
2018-09-16T10:58:23.376Z,1006.38
2018-09-16T10:59:23.388Z,1006.36
2018-09-16T11:00:23.394Z,1006.38
2018-09-16T11:01:23.405Z,1006.41
2018-09-16T11:02:23.415Z,1006.39
2018-09-16T11:03:23.426Z,1006.38
2018-09-16T11:04:23.435Z,1006.36
2018-09-16T11:05:23.443Z,1006.38
2018-09-16T11:06:23.656Z,1006.32
2018-09-16T11:07:23.465Z,1006.32
2018-09-16T11:08:23.473Z,1006.32
2018-09-16T11:09:23.484Z,1006.32
2018-09-16T11:10:23.496Z,1006.26
2018-09-16T11:11:23.503Z,1006.22
2018-09-16T11:12:23.511Z,1006.25
2018-09-16T11:13:23.520Z,1006.24
2018-09-16T11:14:23.530Z,1006.23
2018-09-16T11:16:23.551Z,1006.25
2018-09-16T11:17:23.559Z,1006.23
2018-09-16T11:18:23.567Z,1006.24
2018-09-16T11:19:23.577Z,1006.22
2018-09-16T11:20:23.585Z,1006.21
2018-09-16T11:21:23.595Z,1006.24
2018-09-16T11:22:23.603Z,1006.20
2018-09-16T11:23:23.617Z,1006.20
2018-09-16T11:24:23.623Z,1006.13
2018-09-16T11:25:23.633Z,1006.18
2018-09-16T11:26:23.643Z,1006.15
2018-09-16T11:27:23.656Z,1006.13
2018-09-16T11:28:23.670Z,1006.12
2018-09-16T11:29:23.672Z,1006.15
2018-09-16T11:30:23.681Z,1006.11
2018-09-16T11:31:23.738Z,1006.08
2018-09-16T11:32:23.699Z,1006.06
2018-09-16T11:33:23.708Z,1006.01
2018-09-16T11:34:23.720Z,1005.96
2018-09-16T11:35:23.787Z,1006.00
2018-09-16T11:36:23.736Z,1005.97
2018-09-16T11:37:23.744Z,1005.95
2018-09-16T11:38:23.754Z,1005.99
2018-09-16T11:39:23.789Z,1005.96
2018-09-16T11:40:23.771Z,1005.94
2018-09-16T11:41:23.782Z,1005.98
2018-09-16T11:42:23.791Z,1005.97
2018-09-16T11:43:23.802Z,1005.98
2018-09-16T11:44:24.012Z,1006.00
2018-09-16T11:45:23.813Z,1005.96
2018-09-16T11:46:23.822Z,1005.95
2018-09-16T11:47:23.835Z,1005.99
2018-09-16T11:48:23.839Z,1005.96
2018-09-16T11:49:23.848Z,1005.93
2018-09-16T11:50:23.857Z,1005.93
2018-09-16T11:51:23.879Z,1005.89
2018-09-16T11:52:23.872Z,1005.90
2018-09-16T11:53:23.884Z,1005.91
2018-09-16T11:54:23.891Z,1005.88
2018-09-16T11:55:23.900Z,1005.85
2018-09-16T11:56:23.908Z,1005.83
2018-09-16T11:57:23.918Z,1005.80
2018-09-16T11:58:24.127Z,1005.85
2018-09-16T11:59:23.933Z,1005.76
2018-09-16T12:00:23.941Z,1005.77
2018-09-16T12:01:23.950Z,1005.75
2018-09-16T12:02:23.959Z,1005.72
2018-09-16T12:03:23.968Z,1005.72
2018-09-16T12:04:23.976Z,1005.69
2018-09-16T12:05:24.058Z,1005.70
2018-09-16T12:06:24.002Z,1005.73
2018-09-16T12:07:24.004Z,1005.74